createdAt,value
2019-01-15T00:02:16.688Z,101146.10
2019-01-15T00:04:46.212Z,101140.42
2019-01-15T00:07:15.869Z,101145.31
2019-01-15T00:09:45.656Z,101149.95
2019-01-15T00:12:15.306Z,101155.69
2019-01-15T00:14:45.000Z,101157.16
2019-01-15T00:17:14.663Z,101156.84
2019-01-15T00:19:44.384Z,101153.23
2019-01-15T00:22:14.375Z,101153.13
2019-01-15T00:24:43.885Z,101145.80
2019-01-15T00:27:13.522Z,101147.39
2019-01-15T00:29:43.247Z,101152.05
2019-01-15T00:32:12.945Z,101143.44
2019-01-15T00:34:42.696Z,101142.91
2019-01-15T00:37:12.366Z,101142.51
2019-01-15T00:39:42.912Z,101142.67
2019-01-15T00:42:15.478Z,101139.63
2019-01-15T00:44:44.451Z,101139.06
2019-01-15T00:47:14.135Z,101141.74
2019-01-15T00:49:43.807Z,101140.06
2019-01-15T00:52:13.479Z,101145.81
2019-01-15T00:54:43.161Z,101139.89
2019-01-15T00:57:12.847Z,101159.72
2019-01-15T00:59:42.527Z,101152.18
2019-01-15T01:02:12.615Z,101154.47
2019-01-15T01:04:42.304Z,101158.98
2019-01-15T01:07:11.898Z,101139.58
2019-01-15T01:09:41.506Z,101137.88
2019-01-15T01:12:11.263Z,101138.23
2019-01-15T01:14:40.943Z,101143.91
2019-01-15T01:17:10.796Z,101142.33
2019-01-15T01:19:42.953Z,101147.75
2019-01-15T01:22:13.406Z,101144.98
2019-01-15T01:24:44.247Z,101138.39
2019-01-15T01:27:14.259Z,101139.72
2019-01-15T01:29:44.062Z,101138.39
2019-01-15T01:32:14.025Z,101144.88
2019-01-15T01:34:46.052Z,101156.27
2019-01-15T01:37:15.687Z,101156.17
2019-01-15T01:39:45.316Z,101164.65
2019-01-15T01:42:14.970Z,101166.36
2019-01-15T01:44:44.788Z,101171.09
2019-01-15T01:47:15.116Z,101166.58
2019-01-15T01:49:44.849Z,101149.34
2019-01-15T01:52:14.827Z,101143.67
2019-01-15T01:54:45.815Z,101138.95
2019-01-15T01:57:15.756Z,101136.31
2019-01-15T01:59:45.710Z,101138.02
2019-01-15T02:02:15.584Z,101144.66
2019-01-15T02:04:45.307Z,101142.36
2019-01-15T02:07:15.180Z,101144.72
2019-01-15T02:09:48.467Z,101136.10
2019-01-15T02:12:20.011Z,101124.97
2019-01-15T02:14:50.032Z,101118.55
2019-01-15T02:17:20.297Z,101119.11
2019-01-15T02:19:49.980Z,101111.95
2019-01-15T02:22:19.571Z,101107.98
2019-01-15T02:24:49.351Z,101104.02
2019-01-15T02:27:19.196Z,101105.34
2019-01-15T02:29:48.893Z,101100.75
2019-01-15T02:32:19.553Z,101106.66
2019-01-15T02:34:49.450Z,101107.03
2019-01-15T02:37:19.116Z,101110.50
2019-01-15T02:39:48.807Z,101096.42
2019-01-15T02:42:18.469Z,101102.02
2019-01-15T02:44:48.080Z,101095.83
2019-01-15T02:47:17.796Z,101103.06
2019-01-15T02:49:47.592Z,101102.26
2019-01-15T02:52:17.195Z,101098.77
2019-01-15T02:54:46.882Z,101094.45
2019-01-15T02:57:17.324Z,101101.70
2019-01-15T02:59:47.002Z,101097.73
2019-01-15T03:02:16.822Z,101091.43
2019-01-15T03:04:46.575Z,101096.26
2019-01-15T03:07:17.106Z,101086.58
2019-01-15T03:09:46.822Z,101081.11
2019-01-15T03:12:16.505Z,101082.13
2019-01-15T03:14:46.327Z,101070.70
2019-01-15T03:17:17.665Z,101073.55
2019-01-15T03:19:47.266Z,101085.94
2019-01-15T03:22:16.862Z,101079.00
2019-01-15T03:24:46.908Z,101072.39
2019-01-15T03:27:16.534Z,101079.61
2019-01-15T03:29:46.424Z,101082.97
2019-01-15T03:32:16.072Z,101073.05
2019-01-15T03:34:45.847Z,101086.95
2019-01-15T03:37:16.810Z,101079.02
2019-01-15T03:39:46.550Z,101077.16
2019-01-15T03:42:16.326Z,101069.38
2019-01-15T03:44:45.899Z,101064.75
2019-01-15T03:47:15.528Z,101060.11
2019-01-15T03:49:47.847Z,101067.22
2019-01-15T03:52:18.100Z,101073.70
2019-01-15T03:54:47.682Z,101066.36
2019-01-15T03:57:17.404Z,101069.68
2019-01-15T03:59:47.120Z,101072.52
2019-01-15T04:02:17.038Z,101069.08
2019-01-15T04:04:47.011Z,101068.13
2019-01-15T04:07:19.216Z,101070.30
2019-01-15T04:09:49.756Z,101058.22
2019-01-15T04:12:19.500Z,101054.59
2019-01-15T04:14:49.093Z,101042.20
2019-01-15T04:17:18.738Z,101047.20
2019-01-15T04:19:48.478Z,101043.53
2019-01-15T04:22:18.107Z,101045.22
2019-01-15T04:24:47.705Z,101045.86
2019-01-15T04:27:17.265Z,101053.64
2019-01-15T04:29:46.998Z,101053.03
2019-01-15T04:32:16.670Z,101046.95
2019-01-15T04:34:46.318Z,101045.09
2019-01-15T04:37:15.903Z,101055.80
2019-01-15T04:39:45.458Z,101052.02
2019-01-15T04:42:16.214Z,101054.86
2019-01-15T04:44:45.810Z,101047.88
2019-01-15T04:47:15.510Z,101046.41
2019-01-15T04:49:45.231Z,101041.43
2019-01-15T04:52:14.961Z,101037.50
2019-01-15T04:54:44.614Z,101039.50
2019-01-15T04:57:14.485Z,101048.45
2019-01-15T04:59:44.218Z,101037.88
2019-01-15T05:02:14.705Z,101038.72
2019-01-15T05:04:44.363Z,101039.56
2019-01-15T05:07:14.049Z,101034.98
2019-01-15T05:09:43.525Z,101032.14
2019-01-15T05:12:13.208Z,101024.33
2019-01-15T05:14:43.202Z,101018.42
2019-01-15T05:17:12.987Z,101015.64
2019-01-15T05:19:42.616Z,101017.80
2019-01-15T05:22:12.369Z,101019.52
2019-01-15T05:24:41.884Z,101015.02
2019-01-15T05:27:11.498Z,101011.22
2019-01-15T05:29:41.196Z,101007.59
2019-01-15T05:32:10.790Z,100992.84
2019-01-15T05:34:41.019Z,100988.69
2019-01-15T05:37:10.685Z,100984.05
2019-01-15T05:39:40.334Z,100973.13
2019-01-15T05:42:10.039Z,100976.13
2019-01-15T05:44:39.714Z,100972.16
2019-01-15T05:47:09.421Z,100963.39
2019-01-15T05:49:38.961Z,100959.88
2019-01-15T05:52:08.668Z,100965.87
2019-01-15T05:54:38.429Z,100955.94
2019-01-15T05:57:09.019Z,100959.42
2019-01-15T05:59:38.579Z,100954.11
2019-01-15T06:02:09.051Z,100957.11
2019-01-15T06:04:38.719Z,100953.30
2019-01-15T06:07:08.325Z,100957.97
2019-01-15T06:09:37.965Z,100948.53
2019-01-15T06:12:10.799Z,100945.87
2019-01-15T06:14:40.361Z,100947.38
2019-01-15T06:17:09.989Z,100942.73
2019-01-15T06:19:41.586Z,100943.38
2019-01-15T06:22:11.285Z,100946.69
2019-01-15T06:24:40.839Z,100945.87
2019-01-15T06:27:11.451Z,100946.70
2019-01-15T06:29:41.068Z,100938.77
2019-01-15T06:32:10.774Z,100939.56
2019-01-15T06:34:40.428Z,100939.59
2019-01-15T06:37:10.179Z,100926.83
2019-01-15T06:39:40.724Z,100936.94
2019-01-15T06:42:10.551Z,100951.34
2019-01-15T06:44:40.149Z,100957.14
2019-01-15T06:47:09.798Z,100944.23
2019-01-15T06:49:39.551Z,100946.22
2019-01-15T06:52:09.056Z,100954.67
2019-01-15T06:57:00.348Z,100945.05
2019-01-15T06:59:29.951Z,100945.05
2019-01-15T07:01:59.631Z,100943.22
2019-01-15T07:04:29.351Z,100952.17
2019-01-15T07:06:58.951Z,100954.32
2019-01-15T07:09:28.562Z,100941.05
2019-01-15T07:11:58.235Z,100930.24
2019-01-15T07:14:27.876Z,100921.63
2019-01-15T07:16:57.556Z,100929.39
2019-01-15T07:19:27.136Z,100944.36
2019-01-15T07:21:56.895Z,100935.05
2019-01-15T07:24:26.574Z,100935.03
2019-01-15T07:26:56.244Z,100931.05
2019-01-15T07:29:25.946Z,100933.05
2019-01-15T07:31:55.625Z,100910.12
2019-01-15T07:34:25.326Z,100913.11
2019-01-15T07:36:55.040Z,100894.81
2019-01-15T07:39:24.728Z,100901.81
2019-01-15T07:41:56.461Z,100913.79
2019-01-15T07:44:27.150Z,100912.94
2019-01-15T07:46:56.746Z,100901.48
2019-01-15T07:49:26.470Z,100905.44
2019-01-15T07:51:56.085Z,100932.20
2019-01-15T07:54:26.679Z,100920.07
2019-01-15T07:56:56.481Z,100926.87
2019-01-15T07:59:26.060Z,100918.56
2019-01-15T08:01:56.243Z,100920.36
2019-01-15T08:04:26.096Z,100917.55
2019-01-15T08:06:55.800Z,100920.70
2019-01-15T08:09:25.374Z,100916.88
2019-01-15T08:11:57.272Z,100928.95
2019-01-15T08:14:26.998Z,100925.65
2019-01-15T08:16:58.803Z,100932.79
2019-01-15T08:19:30.390Z,100940.71
2019-01-15T08:22:04.185Z,100940.19
2019-01-15T08:24:33.594Z,100932.98
2019-01-15T08:27:08.674Z,100939.81
2019-01-15T08:29:39.718Z,100929.45
2019-01-15T08:32:09.470Z,100932.72
2019-01-15T08:34:39.097Z,100929.72
2019-01-15T08:37:08.797Z,100927.06
2019-01-15T08:40:01.645Z,100927.10
2019-01-15T08:42:31.346Z,100928.39
2019-01-15T08:45:00.968Z,100925.64
2019-01-15T08:47:36.862Z,100930.31
2019-01-15T08:50:09.205Z,100928.14
2019-01-15T08:52:38.874Z,100924.11
2019-01-15T08:55:08.512Z,100926.88
2019-01-15T08:57:38.380Z,100929.53
2019-01-15T09:00:09.093Z,100923.97
2019-01-15T09:02:38.786Z,100923.56
2019-01-15T09:05:08.398Z,100921.70
2019-01-15T09:07:38.041Z,100923.47
2019-01-15T09:10:09.321Z,100926.27
2019-01-15T09:12:39.061Z,100920.55
2019-01-15T09:15:10.477Z,100915.52
2019-01-15T09:17:40.254Z,100913.34
2019-01-15T09:20:14.391Z,100919.61
2019-01-15T09:22:44.089Z,100910.78
2019-01-15T09:25:13.986Z,100912.61
2019-01-15T09:27:43.708Z,100910.16
2019-01-15T09:30:16.416Z,100907.38
2019-01-15T09:32:46.329Z,100912.75
2019-01-15T09:35:16.047Z,100909.95
2019-01-15T09:37:47.330Z,100905.48
2019-01-15T09:40:19.830Z,100908.84
2019-01-15T09:42:49.433Z,100892.91
2019-01-15T09:45:20.666Z,100902.11
2019-01-15T09:47:54.999Z,100896.06
2019-01-15T09:50:24.485Z,100904.14
2019-01-15T09:52:54.172Z,100899.00
2019-01-15T09:55:23.700Z,100908.61
2019-01-15T09:57:53.268Z,100893.18
2019-01-15T10:00:23.373Z,100886.73
2019-01-15T10:02:53.087Z,100881.20
2019-01-15T10:05:22.637Z,100887.44
2019-01-15T10:07:52.133Z,100890.64
2019-01-15T10:10:21.786Z,100877.47
2019-01-15T10:12:51.386Z,100895.15
2019-01-15T10:15:20.991Z,100896.26
2019-01-15T10:17:50.453Z,100884.91
2019-01-15T10:20:20.181Z,100887.38
2019-01-15T10:22:50.219Z,100892.51
2019-01-15T10:25:24.812Z,100881.33
2019-01-15T10:27:55.279Z,100879.03
2019-01-15T10:30:34.507Z,100873.84
2019-01-15T10:33:28.077Z,100864.22
2019-01-15T10:35:56.750Z,100864.78
2019-01-15T10:38:28.102Z,100870.41
2019-01-15T10:40:58.732Z,100867.39
2019-01-15T10:43:30.315Z,100859.81
2019-01-15T10:46:00.375Z,100867.72
2019-01-15T10:48:29.966Z,100841.98
2019-01-15T10:50:59.657Z,100857.67
2019-01-15T10:53:29.344Z,100856.44
2019-01-15T10:55:58.977Z,100856.77
2019-01-15T10:58:28.661Z,100858.97
2019-01-15T11:00:58.187Z,100860.11
2019-01-15T11:03:27.743Z,100849.45
2019-01-15T11:05:57.276Z,100844.33
2019-01-15T11:08:26.917Z,100847.74
2019-01-15T11:10:56.549Z,100847.64
2019-01-15T11:13:26.242Z,100842.34
2019-01-15T11:15:55.847Z,100836.38
2019-01-15T11:18:25.350Z,100842.67
2019-01-15T11:20:55.063Z,100844.47
2019-01-15T11:23:24.603Z,100823.24
2019-01-15T11:25:54.260Z,100838.38
2019-01-15T11:28:24.024Z,100836.75
2019-01-15T11:30:53.613Z,100835.80
2019-01-15T11:33:23.321Z,100835.42
2019-01-15T11:35:52.938Z,100825.57
2019-01-15T11:38:22.463Z,100833.96
2019-01-15T11:40:52.225Z,100832.16
2019-01-15T11:43:22.173Z,100833.13
2019-01-15T11:45:52.010Z,100831.16
2019-01-15T11:48:21.682Z,100833.45
2019-01-15T11:50:51.279Z,100830.78
2019-01-15T11:53:20.938Z,100833.95
2019-01-15T11:55:50.477Z,100822.91
2019-01-15T11:58:20.060Z,100823.03
2019-01-15T12:00:55.922Z,100823.35
2019-01-15T12:03:44.670Z,100816.47
2019-01-15T12:06:51.440Z,100807.58
2019-01-15T12:09:51.695Z,100816.45
2019-01-15T12:12:42.708Z,100798.07
2019-01-15T12:15:34.200Z,100800.10
2019-01-15T12:18:25.784Z,100787.06
2019-01-15T12:21:20.284Z,100793.66
2019-01-15T12:24:07.686Z,100790.84
2019-01-15T12:27:11.211Z,100791.63
2019-01-15T12:29:53.179Z,100801.17
2019-01-15T12:32:40.621Z,100801.24
2019-01-15T12:35:35.919Z,100790.95
2019-01-15T12:38:17.279Z,100773.05
2019-01-15T12:41:15.187Z,100777.61
2019-01-15T12:43:57.531Z,100787.27
2019-01-15T12:46:45.608Z,100782.95
2019-01-15T12:49:52.367Z,100782.81
2019-01-15T12:52:39.806Z,100785.36
2019-01-15T12:55:32.650Z,100783.20
2019-01-15T12:58:27.266Z,100789.73
2019-01-15T13:01:17.297Z,100781.76
2019-01-15T13:04:04.838Z,100777.67
2019-01-15T13:07:11.439Z,100784.16
2019-01-15T13:10:15.338Z,100772.08
2019-01-15T13:13:18.712Z,100785.62
2019-01-15T13:15:58.270Z,100774.25
2019-01-15T13:18:50.871Z,100779.64
2019-01-15T13:21:39.930Z,100782.02
2019-01-15T13:24:41.879Z,100782.19
2019-01-15T13:27:48.951Z,100775.85
2019-01-15T13:30:52.281Z,100770.39
2019-01-15T13:33:50.046Z,100766.89
2019-01-15T13:36:47.298Z,100766.17
2019-01-15T13:39:35.889Z,100756.38
2019-01-15T13:42:30.677Z,100761.21
2019-01-15T13:45:34.158Z,100757.05
2019-01-15T13:48:21.399Z,100741.17
2019-01-15T13:51:08.622Z,100741.92
2019-01-15T13:54:15.726Z,100740.14
2019-01-15T13:57:13.082Z,100749.80
2019-01-15T13:59:55.331Z,100749.67
2019-01-15T14:02:46.592Z,100752.92
2019-01-15T14:05:44.217Z,100749.60
2019-01-15T14:08:33.865Z,100742.68
2019-01-15T14:11:25.331Z,100752.55
2019-01-15T14:14:14.937Z,100744.47
2019-01-15T14:17:19.029Z,100745.50
2019-01-15T14:20:16.558Z,100747.17
2019-01-15T14:23:03.929Z,100744.11
2019-01-15T14:25:55.690Z,100743.41
2019-01-15T14:28:56.009Z,100729.55
2019-01-15T14:31:42.998Z,100743.03
2019-01-15T14:34:31.553Z,100734.63
2019-01-15T14:37:26.173Z,100735.13
2019-01-15T14:40:32.876Z,100741.92
2019-01-15T14:43:20.357Z,100730.05
2019-01-15T14:46:23.823Z,100733.09
2019-01-15T14:49:18.565Z,100732.67
2019-01-15T14:52:19.106Z,100732.67
2019-01-15T14:55:24.228Z,100724.47
2019-01-15T14:58:12.668Z,100728.67
2019-01-15T15:01:01.069Z,100731.47
2019-01-15T15:03:52.547Z,100729.05
2019-01-15T15:06:40.890Z,100729.30
2019-01-15T15:09:38.887Z,100726.43
2019-01-15T15:12:36.681Z,100721.67
2019-01-15T15:15:26.029Z,100726.38
2019-01-15T15:18:11.128Z,100726.30
2019-01-15T15:21:17.708Z,100731.39
2019-01-15T15:24:10.136Z,100735.51
2019-01-15T15:27:10.714Z,100723.52
2019-01-15T15:30:04.943Z,100729.80
2019-01-15T15:32:52.116Z,100727.14
2019-01-15T15:35:45.308Z,100722.63
2019-01-15T15:38:33.901Z,100723.77
2019-01-15T15:41:32.138Z,100717.93
2019-01-15T15:44:25.002Z,100723.72
2019-01-15T15:47:13.451Z,100711.59
2019-01-15T15:50:10.678Z,100712.22
2019-01-15T15:53:05.302Z,100721.05
2019-01-15T15:55:54.707Z,100719.59
2019-01-15T15:58:39.992Z,100718.70
2019-01-15T16:01:37.393Z,100714.38
2019-01-15T16:04:24.541Z,100722.17
2019-01-15T16:11:31.191Z,100715.01
2019-01-15T16:15:21.259Z,100714.13
2019-01-15T16:23:03.000Z,100706.95
2019-01-15T16:33:46.368Z,100713.05
2019-01-15T16:36:47.588Z,100706.89
2019-01-15T16:39:48.350Z,100705.51
2019-01-15T16:42:43.929Z,100706.43
2019-01-15T16:52:28.446Z,100690.13
2019-01-15T16:55:34.117Z,100696.55
2019-01-15T16:58:51.229Z,100702.72
2019-01-15T17:02:44.850Z,100708.42
2019-01-15T17:10:18.248Z,100697.50
2019-01-15T17:17:18.612Z,100701.93
2019-01-15T17:19:58.230Z,100695.02
2019-01-15T17:23:18.359Z,100698.50
2019-01-15T17:29:49.915Z,100697.05
2019-01-15T17:32:50.403Z,100697.13
2019-01-15T17:39:14.377Z,100686.47
2019-01-15T17:42:10.029Z,100695.04
2019-01-15T17:45:04.324Z,100685.88
2019-01-15T17:48:08.515Z,100684.76
2019-01-15T17:51:25.922Z,100683.09
2019-01-15T17:54:19.965Z,100688.42
2019-01-15T17:57:16.193Z,100696.50
2019-01-15T18:00:13.087Z,100682.52
2019-01-15T18:03:02.098Z,100684.25
2019-01-15T18:05:50.714Z,100696.55
2019-01-15T18:08:34.091Z,100687.22
2019-01-15T18:11:36.759Z,100687.59
2019-01-15T18:14:27.123Z,100698.58
2019-01-15T18:17:23.589Z,100683.14
2019-01-15T18:20:08.012Z,100683.42
2019-01-15T18:23:02.528Z,100693.76
2019-01-15T18:25:49.908Z,100689.68
2019-01-15T18:28:40.257Z,100696.67
2019-01-15T18:31:28.939Z,100694.13
2019-01-15T18:34:17.997Z,100700.50
2019-01-15T18:37:22.304Z,100703.46
2019-01-15T18:40:18.040Z,100698.38
2019-01-15T18:49:47.822Z,100694.58
2019-01-15T18:52:40.761Z,100701.69
2019-01-15T18:55:42.451Z,100707.63
2019-01-15T19:01:50.022Z,100704.59
2019-01-15T19:04:49.059Z,100703.06
2019-01-15T19:07:36.519Z,100703.43
2019-01-15T19:13:29.106Z,100684.89
2019-01-15T19:16:31.679Z,100701.37
2019-01-15T19:19:20.427Z,100692.92
2019-01-15T19:22:09.042Z,100687.93
2019-01-15T19:24:54.956Z,100693.75
2019-01-15T19:27:52.932Z,100688.53
2019-01-15T19:30:41.840Z,100688.03
2019-01-15T19:33:29.657Z,100693.12
2019-01-15T19:36:18.146Z,100691.72
2019-01-15T19:39:05.749Z,100694.48
2019-01-15T19:42:01.297Z,100689.99
2019-01-15T19:45:05.854Z,100688.46
2019-01-15T19:47:53.516Z,100688.89
2019-01-15T19:51:00.579Z,100692.98
2019-01-15T19:53:47.985Z,100688.89
2019-01-15T19:56:36.964Z,100695.81
2019-01-15T19:59:28.782Z,100697.25
2019-01-15T20:02:17.955Z,100693.48
2019-01-15T20:05:09.965Z,100695.88
2019-01-15T20:07:57.695Z,100698.67
2019-01-15T20:11:04.896Z,100690.72
2019-01-15T20:13:52.273Z,100698.81
2019-01-15T20:16:59.502Z,100695.32
2019-01-15T20:20:03.418Z,100702.97
2019-01-15T20:22:58.357Z,100704.84
2019-01-15T20:25:37.788Z,100695.69
2019-01-15T20:28:29.787Z,100699.08
2019-01-15T20:31:09.681Z,100701.94
2019-01-15T20:34:04.576Z,100698.88
2019-01-15T20:36:52.459Z,100702.20
2019-01-15T20:39:36.207Z,100703.54
2019-01-15T20:42:28.211Z,100700.17
2019-01-15T20:45:17.127Z,100699.70
2019-01-15T20:48:05.001Z,100706.29
2019-01-15T20:50:52.423Z,100700.98
2019-01-15T20:53:47.725Z,100698.69
2019-01-15T20:56:35.211Z,100699.48
2019-01-15T20:59:22.768Z,100698.07
2019-01-15T21:02:17.783Z,100708.87
2019-01-15T21:05:11.807Z,100705.50
2019-01-15T21:08:09.672Z,100690.84
2019-01-15T21:11:02.505Z,100702.95
2019-01-15T21:14:03.767Z,100704.80
2019-01-15T21:16:54.458Z,100699.30
2019-01-15T21:19:42.149Z,100690.13
2019-01-15T21:22:43.041Z,100693.25
2019-01-15T21:25:30.449Z,100694.84
2019-01-15T21:28:17.779Z,100695.72
2019-01-15T21:31:06.902Z,100700.92
2019-01-15T21:34:06.170Z,100693.50
2019-01-15T21:37:07.169Z,100701.37
2019-01-15T21:39:58.644Z,100703.59
2019-01-15T21:42:42.880Z,100696.59
2019-01-15T21:45:31.551Z,100701.80
2019-01-15T21:48:28.991Z,100694.01
2019-01-15T21:51:16.406Z,100693.88
2019-01-15T21:54:03.568Z,100684.30
2019-01-15T21:56:42.439Z,100686.77
2019-01-15T21:59:36.841Z,100686.84
2019-01-15T22:02:25.389Z,100685.69
2019-01-15T22:05:32.139Z,100684.59
2019-01-15T22:08:19.466Z,100688.80
2019-01-15T22:11:07.286Z,100686.39
2019-01-15T22:14:08.047Z,100687.34
2019-01-15T22:16:51.587Z,100679.52
2019-01-15T22:19:42.788Z,100677.44
2019-01-15T22:22:37.098Z,100673.39
2019-01-15T22:25:25.187Z,100681.43
2019-01-15T22:28:28.894Z,100675.42
2019-01-15T22:31:20.118Z,100670.22
2019-01-15T22:34:03.398Z,100678.02
2019-01-15T22:37:10.229Z,100665.84
2019-01-15T22:39:58.275Z,100659.81
2019-01-15T22:43:02.195Z,100660.52
2019-01-15T22:45:59.641Z,100661.64
2019-01-15T22:48:54.578Z,100652.31
2019-01-15T22:51:43.077Z,100648.06
2019-01-15T22:54:40.910Z,100649.39
2019-01-15T22:57:28.438Z,100646.61
2019-01-15T23:00:15.695Z,100644.19
2019-01-15T23:03:13.035Z,100645.22
2019-01-15T23:05:55.057Z,100641.78
2019-01-15T23:08:41.851Z,100644.14
2019-01-15T23:11:30.239Z,100641.52
2019-01-15T23:14:18.761Z,100635.95
2019-01-15T23:17:19.798Z,100644.84
2019-01-15T23:20:20.658Z,100631.62
2019-01-15T23:23:07.818Z,100630.87
2019-01-15T23:25:46.742Z,100633.66
2019-01-15T23:28:33.881Z,100624.28
2019-01-15T23:31:21.357Z,100613.55
2019-01-15T23:34:12.587Z,100618.38
2019-01-15T23:37:00.724Z,100624.78
2019-01-15T23:39:43.154Z,100616.29
2019-01-15T23:42:34.613Z,100620.79
2019-01-15T23:45:23.434Z,100617.50
2019-01-15T23:48:12.327Z,100610.45
2019-01-15T23:51:09.760Z,100610.88
2019-01-15T23:54:16.398Z,100601.55
2019-01-15T23:57:07.861Z,100609.80
2019-01-15T23:59:55.364Z,100601.97
